sensor_id;sensor_type;location;lat;lon;timestamp;P1;durP1;ratioP1;P2;durP2;ratioP2
54125;SDS011;40360;52.992;6.796;2022-10-16T00:00:34;10.23;;;2.50;;
54125;SDS011;40360;52.992;6.796;2022-10-16T00:03:02;11.20;;;3.08;;
54125;SDS011;40360;52.992;6.796;2022-10-16T00:05:28;6.13;;;2.67;;
54125;SDS011;40360;52.992;6.796;2022-10-16T00:07:54;8.45;;;2.25;;
54125;SDS011;40360;52.992;6.796;2022-10-16T00:10:20;6.55;;;2.22;;
54125;SDS011;40360;52.992;6.796;2022-10-16T00:12:45;7.80;;;2.53;;
54125;SDS011;40360;52.992;6.796;2022-10-16T00:15:11;8.23;;;2.30;;
54125;SDS011;40360;52.992;6.796;2022-10-16T00:17:37;8.18;;;2.58;;
54125;SDS011;40360;52.992;6.796;2022-10-16T00:20:03;11.48;;;2.50;;
54125;SDS011;40360;52.992;6.796;2022-10-16T00:22:29;11.00;;;2.90;;
54125;SDS011;40360;52.992;6.796;2022-10-16T00:24:54;10.75;;;2.30;;
54125;SDS011;40360;52.992;6.796;2022-10-16T00:27:20;9.57;;;3.53;;
54125;SDS011;40360;52.992;6.796;2022-10-16T00:29:49;3.95;;;2.15;;
54125;SDS011;40360;52.992;6.796;2022-10-16T00:32:16;9.02;;;2.70;;
54125;SDS011;40360;52.992;6.796;2022-10-16T00:34:43;6.15;;;3.13;;
54125;SDS011;40360;52.992;6.796;2022-10-16T00:37:08;6.30;;;2.30;;
54125;SDS011;40360;52.992;6.796;2022-10-16T00:39:34;6.55;;;2.22;;
54125;SDS011;40360;52.992;6.796;2022-10-16T00:41:59;7.88;;;2.78;;
54125;SDS011;40360;52.992;6.796;2022-10-16T00:49:46;8.68;;;2.38;;
54125;SDS011;40360;52.992;6.796;2022-10-16T00:52:15;8.65;;;2.25;;
54125;SDS011;40360;52.992;6.796;2022-10-16T00:54:41;12.63;;;2.70;;
54125;SDS011;40360;52.992;6.796;2022-10-16T00:57:08;8.68;;;2.25;;
54125;SDS011;40360;52.992;6.796;2022-10-16T00:59:35;9.32;;;2.70;;
54125;SDS011;40360;52.992;6.796;2022-10-16T01:02:03;6.63;;;2.38;;
54125;SDS011;40360;52.992;6.796;2022-10-16T01:04:32;3.53;;;2.20;;
54125;SDS011;40360;52.992;6.796;2022-10-16T01:07:25;5.82;;;1.85;;
54125;SDS011;40360;52.992;6.796;2022-10-16T01:13:04;7.10;;;2.15;;
54125;SDS011;40360;52.992;6.796;2022-10-16T01:18:31;6.75;;;2.05;;
54125;SDS011;40360;52.992;6.796;2022-10-16T01:21:03;8.60;;;2.65;;
54125;SDS011;40360;52.992;6.796;2022-10-16T01:26:12;6.60;;;2.10;;
54125;SDS011;40360;52.992;6.796;2022-10-16T01:29:08;5.80;;;2.05;;
54125;SDS011;40360;52.992;6.796;2022-10-16T01:31:44;7.10;;;2.95;;
54125;SDS011;40360;52.992;6.796;2022-10-16T01:34:16;6.00;;;1.90;;
54125;SDS011;40360;52.992;6.796;2022-10-16T01:36:50;5.72;;;1.80;;
54125;SDS011;40360;52.992;6.796;2022-10-16T01:39:21;6.70;;;2.67;;
54125;SDS011;40360;52.992;6.796;2022-10-16T01:41:51;4.30;;;2.00;;
54125;SDS011;40360;52.992;6.796;2022-10-16T01:44:24;8.60;;;2.60;;
54125;SDS011;40360;52.992;6.796;2022-10-16T01:46:53;9.70;;;2.75;;
54125;SDS011;40360;52.992;6.796;2022-10-16T01:49:20;8.43;;;2.67;;
54125;SDS011;40360;52.992;6.796;2022-10-16T01:51:49;8.13;;;2.42;;
54125;SDS011;40360;52.992;6.796;2022-10-16T01:54:20;7.03;;;2.80;;
54125;SDS011;40360;52.992;6.796;2022-10-16T01:56:50;6.53;;;3.17;;
54125;SDS011;40360;52.992;6.796;2022-10-16T01:59:16;5.03;;;2.22;;
54125;SDS011;40360;52.992;6.796;2022-10-16T02:01:50;5.85;;;2.50;;
54125;SDS011;40360;52.992;6.796;2022-10-16T02:04:34;7.22;;;2.65;;
54125;SDS011;40360;52.992;6.796;2022-10-16T02:07:04;6.40;;;2.42;;
54125;SDS011;40360;52.992;6.796;2022-10-16T02:09:32;3.63;;;2.35;;
54125;SDS011;40360;52.992;6.796;2022-10-16T02:11:59;6.03;;;2.30;;
54125;SDS011;40360;52.992;6.796;2022-10-16T02:14:29;6.32;;;2.28;;
54125;SDS011;40360;52.992;6.796;2022-10-16T02:16:56;5.60;;;2.80;;
54125;SDS011;40360;52.992;6.796;2022-10-16T02:19:22;7.60;;;3.67;;
54125;SDS011;40360;52.992;6.796;2022-10-16T02:21:54;6.03;;;3.10;;
54125;SDS011;40360;52.992;6.796;2022-10-16T02:27:01;4.97;;;2.75;;
54125;SDS011;40360;52.992;6.796;2022-10-16T02:29:38;4.50;;;2.40;;
54125;SDS011;40360;52.992;6.796;2022-10-16T02:32:13;5.85;;;2.92;;
54125;SDS011;40360;52.992;6.796;2022-10-16T02:34:42;4.97;;;2.45;;
54125;SDS011;40360;52.992;6.796;2022-10-16T02:37:10;7.65;;;3.05;;
54125;SDS011;40360;52.992;6.796;2022-10-16T02:39:36;5.18;;;2.85;;
54125;SDS011;40360;52.992;6.796;2022-10-16T02:42:03;7.70;;;2.65;;
54125;SDS011;40360;52.992;6.796;2022-10-16T02:44:29;7.50;;;2.60;;
54125;SDS011;40360;52.992;6.796;2022-10-16T02:46:55;7.30;;;3.42;;
54125;SDS011;40360;52.992;6.796;2022-10-16T02:49:20;7.07;;;2.55;;
54125;SDS011;40360;52.992;6.796;2022-10-16T02:51:46;6.50;;;2.67;;
54125;SDS011;40360;52.992;6.796;2022-10-16T02:54:11;5.43;;;2.53;;
54125;SDS011;40360;52.992;6.796;2022-10-16T02:56:38;6.78;;;2.78;;
54125;SDS011;40360;52.992;6.796;2022-10-16T02:59:03;4.45;;;2.65;;
54125;SDS011;40360;52.992;6.796;2022-10-16T03:01:29;5.43;;;2.65;;
54125;SDS011;40360;52.992;6.796;2022-10-16T03:03:55;11.98;;;2.60;;
54125;SDS011;40360;52.992;6.796;2022-10-16T03:06:24;6.30;;;2.45;;
54125;SDS011;40360;52.992;6.796;2022-10-16T03:08:49;7.53;;;2.33;;
54125;SDS011;40360;52.992;6.796;2022-10-16T03:11:15;4.72;;;2.83;;
54125;SDS011;40360;52.992;6.796;2022-10-16T03:13:41;4.88;;;2.78;;
54125;SDS011;40360;52.992;6.796;2022-10-16T03:16:07;6.38;;;2.35;;
54125;SDS011;40360;52.992;6.796;2022-10-16T03:18:32;5.65;;;2.45;;
54125;SDS011;40360;52.992;6.796;2022-10-16T03:20:58;6.22;;;2.45;;
54125;SDS011;40360;52.992;6.796;2022-10-16T03:23:24;6.30;;;2.90;;
54125;SDS011;40360;52.992;6.796;2022-10-16T03:25:49;10.13;;;2.50;;
54125;SDS011;40360;52.992;6.796;2022-10-16T03:28:15;5.80;;;2.50;;
54125;SDS011;40360;52.992;6.796;2022-10-16T03:30:41;4.75;;;2.05;;
54125;SDS011;40360;52.992;6.796;2022-10-16T03:33:07;8.13;;;2.80;;
54125;SDS011;40360;52.992;6.796;2022-10-16T03:35:33;4.88;;;2.40;;
54125;SDS011;40360;52.992;6.796;2022-10-16T03:37:59;5.88;;;2.22;;
54125;SDS011;40360;52.992;6.796;2022-10-16T03:40:25;4.40;;;2.75;;
54125;SDS011;40360;52.992;6.796;2022-10-16T03:42:50;5.75;;;2.80;;
54125;SDS011;40360;52.992;6.796;2022-10-16T03:45:16;14.18;;;2.47;;
54125;SDS011;40360;52.992;6.796;2022-10-16T03:47:42;9.52;;;2.70;;
54125;SDS011;40360;52.992;6.796;2022-10-16T03:50:07;6.57;;;3.05;;
54125;SDS011;40360;52.992;6.796;2022-10-16T03:52:33;8.07;;;2.85;;
54125;SDS011;40360;52.992;6.796;2022-10-16T03:54:59;4.43;;;2.53;;
54125;SDS011;40360;52.992;6.796;2022-10-16T03:57:25;3.92;;;2.22;;
54125;SDS011;40360;52.992;6.796;2022-10-16T03:59:51;5.85;;;2.65;;
54125;SDS011;40360;52.992;6.796;2022-10-16T04:02:16;2.92;;;2.20;;
54125;SDS011;40360;52.992;6.796;2022-10-16T04:04:42;5.32;;;2.33;;
54125;SDS011;40360;52.992;6.796;2022-10-16T04:07:08;5.15;;;2.22;;
54125;SDS011;40360;52.992;6.796;2022-10-16T04:09:33;14.52;;;2.63;;
54125;SDS011;40360;52.992;6.796;2022-10-16T04:11:59;6.63;;;2.40;;
54125;SDS011;40360;52.992;6.796;2022-10-16T04:14:25;5.20;;;3.92;;
54125;SDS011;40360;52.992;6.796;2022-10-16T04:16:50;5.50;;;2.30;;
54125;SDS011;40360;52.992;6.796;2022-10-16T04:19:16;4.82;;;2.20;;
54125;SDS011;40360;52.992;6.796;2022-10-16T04:21:42;4.15;;;2.03;;
54125;SDS011;40360;52.992;6.796;2022-10-16T04:24:08;4.20;;;2.47;;
54125;SDS011;40360;52.992;6.796;2022-10-16T04:26:34;6.88;;;2.75;;
54125;SDS011;40360;52.992;6.796;2022-10-16T04:29:00;5.03;;;2.58;;
54125;SDS011;40360;52.992;6.796;2022-10-16T04:31:26;5.75;;;3.28;;
54125;SDS011;40360;52.992;6.796;2022-10-16T04:33:52;5.30;;;2.47;;
54125;SDS011;40360;52.992;6.796;2022-10-16T04:36:18;5.82;;;2.30;;
54125;SDS011;40360;52.992;6.796;2022-10-16T04:38:43;5.07;;;2.80;;
54125;SDS011;40360;52.992;6.796;2022-10-16T04:41:09;6.22;;;3.25;;
54125;SDS011;40360;52.992;6.796;2022-10-16T04:43:34;5.75;;;2.90;;
54125;SDS011;40360;52.992;6.796;2022-10-16T04:46:00;7.88;;;3.35;;
54125;SDS011;40360;52.992;6.796;2022-10-16T04:48:26;5.18;;;2.72;;
54125;SDS011;40360;52.992;6.796;2022-10-16T04:50:52;5.45;;;3.03;;
54125;SDS011;40360;52.992;6.796;2022-10-16T04:53:18;6.40;;;3.35;;
54125;SDS011;40360;52.992;6.796;2022-10-16T04:55:43;6.50;;;3.75;;
54125;SDS011;40360;52.992;6.796;2022-10-16T04:58:09;4.20;;;2.63;;
54125;SDS011;40360;52.992;6.796;2022-10-16T05:00:35;7.68;;;3.60;;
54125;SDS011;40360;52.992;6.796;2022-10-16T05:21:06;5.47;;;3.28;;
54125;SDS011;40360;52.992;6.796;2022-10-16T05:23:32;8.70;;;3.70;;
54125;SDS011;40360;52.992;6.796;2022-10-16T05:25:58;5.90;;;3.03;;
54125;SDS011;40360;52.992;6.796;2022-10-16T05:28:25;6.38;;;3.83;;
54125;SDS011;40360;52.992;6.796;2022-10-16T05:30:51;5.10;;;3.30;;
54125;SDS011;40360;52.992;6.796;2022-10-16T05:33:17;7.63;;;4.43;;
54125;SDS011;40360;52.992;6.796;2022-10-16T05:35:44;9.07;;;4.47;;
54125;SDS011;40360;52.992;6.796;2022-10-16T05:38:10;5.45;;;3.30;;
54125;SDS011;40360;52.992;6.796;2022-10-16T05:40:36;5.60;;;3.38;;
54125;SDS011;40360;52.992;6.796;2022-10-16T05:43:02;6.93;;;4.05;;
54125;SDS011;40360;52.992;6.796;2022-10-16T05:45:27;6.43;;;2.97;;
54125;SDS011;40360;52.992;6.796;2022-10-16T05:47:53;6.65;;;3.58;;
54125;SDS011;40360;52.992;6.796;2022-10-16T05:50:19;6.75;;;3.13;;
54125;SDS011;40360;52.992;6.796;2022-10-16T05:52:45;7.03;;;4.43;;
54125;SDS011;40360;52.992;6.796;2022-10-16T05:55:11;8.35;;;4.05;;
54125;SDS011;40360;52.992;6.796;2022-10-16T05:57:37;5.50;;;3.28;;
54125;SDS011;40360;52.992;6.796;2022-10-16T06:00:04;5.15;;;3.33;;
54125;SDS011;40360;52.992;6.796;2022-10-16T06:02:29;6.90;;;3.65;;
54125;SDS011;40360;52.992;6.796;2022-10-16T06:04:55;9.23;;;3.08;;
54125;SDS011;40360;52.992;6.796;2022-10-16T06:07:21;8.95;;;4.22;;
54125;SDS011;40360;52.992;6.796;2022-10-16T06:09:51;8.48;;;3.88;;
54125;SDS011;40360;52.992;6.796;2022-10-16T06:12:20;4.32;;;3.17;;
54125;SDS011;40360;52.992;6.796;2022-10-16T06:14:46;6.25;;;3.30;;
54125;SDS011;40360;52.992;6.796;2022-10-16T06:17:12;6.63;;;3.63;;
54125;SDS011;40360;52.992;6.796;2022-10-16T06:19:39;5.03;;;3.45;;
54125;SDS011;40360;52.992;6.796;2022-10-16T06:22:05;5.53;;;3.35;;
54125;SDS011;40360;52.992;6.796;2022-10-16T06:24:31;4.82;;;3.55;;
54125;SDS011;40360;52.992;6.796;2022-10-16T06:26:57;6.55;;;3.30;;
54125;SDS011;40360;52.992;6.796;2022-10-16T06:29:23;5.25;;;3.20;;
54125;SDS011;40360;52.992;6.796;2022-10-16T06:31:49;7.85;;;3.35;;
54125;SDS011;40360;52.992;6.796;2022-10-16T06:34:14;6.18;;;3.35;;
54125;SDS011;40360;52.992;6.796;2022-10-16T06:36:40;6.45;;;3.40;;
54125;SDS011;40360;52.992;6.796;2022-10-16T06:39:08;6.35;;;3.00;;
54125;SDS011;40360;52.992;6.796;2022-10-16T06:41:34;8.43;;;3.08;;
54125;SDS011;40360;52.992;6.796;2022-10-16T06:44:07;4.32;;;2.97;;
54125;SDS011;40360;52.992;6.796;2022-10-16T06:46:33;5.53;;;2.90;;
54125;SDS011;40360;52.992;6.796;2022-10-16T06:48:59;5.18;;;2.75;;
54125;SDS011;40360;52.992;6.796;2022-10-16T06:51:25;6.65;;;3.25;;
54125;SDS011;40360;52.992;6.796;2022-10-16T06:53:54;8.90;;;2.65;;
54125;SDS011;40360;52.992;6.796;2022-10-16T06:56:24;5.20;;;2.85;;
54125;SDS011;40360;52.992;6.796;2022-10-16T06:58:51;3.15;;;2.53;;
54125;SDS011;40360;52.992;6.796;2022-10-16T07:01:19;4.75;;;2.97;;
54125;SDS011;40360;52.992;6.796;2022-10-16T07:03:46;3.60;;;2.53;;
54125;SDS011;40360;52.992;6.796;2022-10-16T07:06:13;3.10;;;2.42;;
54125;SDS011;40360;52.992;6.796;2022-10-16T07:08:41;5.25;;;2.83;;
54125;SDS011;40360;52.992;6.796;2022-10-16T07:11:18;5.95;;;2.58;;
54125;SDS011;40360;52.992;6.796;2022-10-16T07:13:47;5.70;;;2.70;;
54125;SDS011;40360;52.992;6.796;2022-10-16T07:16:14;4.72;;;2.80;;
54125;SDS011;40360;52.992;6.796;2022-10-16T07:18:42;5.25;;;2.13;;
54125;SDS011;40360;52.992;6.796;2022-10-16T07:21:15;4.97;;;3.13;;
54125;SDS011;40360;52.992;6.796;2022-10-16T07:23:43;6.85;;;2.72;;
54125;SDS011;40360;52.992;6.796;2022-10-16T07:26:09;4.97;;;2.70;;
54125;SDS011;40360;52.992;6.796;2022-10-16T07:28:35;4.97;;;2.53;;
54125;SDS011;40360;52.992;6.796;2022-10-16T07:31:03;5.28;;;3.15;;
54125;SDS011;40360;52.992;6.796;2022-10-16T07:33:31;5.05;;;2.63;;
54125;SDS011;40360;52.992;6.796;2022-10-16T07:35:57;7.43;;;2.65;;
54125;SDS011;40360;52.992;6.796;2022-10-16T07:38:23;6.22;;;3.00;;
54125;SDS011;40360;52.992;6.796;2022-10-16T07:40:55;5.70;;;2.25;;
54125;SDS011;40360;52.992;6.796;2022-10-16T07:43:25;6.03;;;2.88;;
54125;SDS011;40360;52.992;6.796;2022-10-16T07:45:51;5.85;;;2.10;;
54125;SDS011;40360;52.992;6.796;2022-10-16T07:48:18;5.47;;;2.28;;
54125;SDS011;40360;52.992;6.796;2022-10-16T07:50:44;11.10;;;2.60;;
54125;SDS011;40360;52.992;6.796;2022-10-16T07:53:10;8.52;;;3.00;;
54125;SDS011;40360;52.992;6.796;2022-10-16T07:55:37;7.00;;;2.53;;
54125;SDS011;40360;52.992;6.796;2022-10-16T07:58:03;5.75;;;2.72;;
54125;SDS011;40360;52.992;6.796;2022-10-16T08:00:30;3.92;;;2.40;;
54125;SDS011;40360;52.992;6.796;2022-10-16T08:02:56;7.20;;;2.63;;
54125;SDS011;40360;52.992;6.796;2022-10-16T08:05:25;7.55;;;2.50;;
54125;SDS011;40360;52.992;6.796;2022-10-16T08:07:55;6.57;;;2.45;;
54125;SDS011;40360;52.992;6.796;2022-10-16T08:10:22;6.80;;;2.20;;
54125;SDS011;40360;52.992;6.796;2022-10-16T08:12:49;8.50;;;2.38;;
54125;SDS011;40360;52.992;6.796;2022-10-16T08:15:16;6.68;;;2.20;;
54125;SDS011;40360;52.992;6.796;2022-10-16T08:17:42;3.08;;;1.90;;
54125;SDS011;40360;52.992;6.796;2022-10-16T08:20:08;5.55;;;2.00;;
54125;SDS011;40360;52.992;6.796;2022-10-16T08:22:35;4.68;;;1.75;;
54125;SDS011;40360;52.992;6.796;2022-10-16T08:25:00;4.32;;;1.92;;
54125;SDS011;40360;52.992;6.796;2022-10-16T08:27:30;5.35;;;1.70;;
54125;SDS011;40360;52.992;6.796;2022-10-16T08:29:57;5.07;;;1.88;;
54125;SDS011;40360;52.992;6.796;2022-10-16T08:32:22;3.78;;;2.03;;
54125;SDS011;40360;52.992;6.796;2022-10-16T08:34:48;5.57;;;2.13;;
54125;SDS011;40360;52.992;6.796;2022-10-16T08:37:13;6.60;;;2.42;;
54125;SDS011;40360;52.992;6.796;2022-10-16T08:39:39;6.25;;;2.08;;
54125;SDS011;40360;52.992;6.796;2022-10-16T08:45:15;2.53;;;1.20;;
54125;SDS011;40360;52.992;6.796;2022-10-16T08:50:42;7.82;;;2.00;;
54125;SDS011;40360;52.992;6.796;2022-10-16T08:53:10;5.53;;;1.75;;
54125;SDS011;40360;52.992;6.796;2022-10-16T08:55:44;6.10;;;1.40;;
54125;SDS011;40360;52.992;6.796;2022-10-16T08:58:21;3.22;;;1.20;;
54125;SDS011;40360;52.992;6.796;2022-10-16T09:00:52;5.38;;;1.45;;
54125;SDS011;40360;52.992;6.796;2022-10-16T09:11:51;4.80;;;1.45;;
54125;SDS011;40360;52.992;6.796;2022-10-16T09:17:41;6.18;;;1.75;;
54125;SDS011;40360;52.992;6.796;2022-10-16T09:20:29;4.85;;;1.77;;
54125;SDS011;40360;52.992;6.796;2022-10-16T09:25:29;5.53;;;1.95;;
54125;SDS011;40360;52.992;6.796;2022-10-16T09:27:56;8.43;;;2.15;;
54125;SDS011;40360;52.992;6.796;2022-10-16T09:30:29;5.90;;;2.10;;
54125;SDS011;40360;52.992;6.796;2022-10-16T09:32:55;6.30;;;2.03;;
54125;SDS011;40360;52.992;6.796;2022-10-16T09:35:27;8.88;;;2.05;;
54125;SDS011;40360;52.992;6.796;2022-10-16T09:37:56;5.65;;;1.92;;
54125;SDS011;40360;52.992;6.796;2022-10-16T09:40:29;6.95;;;1.88;;
54125;SDS011;40360;52.992;6.796;2022-10-16T09:43:01;9.75;;;1.65;;
54125;SDS011;40360;52.992;6.796;2022-10-16T09:45:35;9.73;;;2.35;;
54125;SDS011;40360;52.992;6.796;2022-10-16T09:48:01;7.28;;;1.92;;
54125;SDS011;40360;52.992;6.796;2022-10-16T09:50:36;8.43;;;2.07;;
54125;SDS011;40360;52.992;6.796;2022-10-16T09:53:11;6.53;;;1.90;;
54125;SDS011;40360;52.992;6.796;2022-10-16T09:55:47;8.75;;;2.30;;
54125;SDS011;40360;52.992;6.796;2022-10-16T09:58:14;6.28;;;2.45;;
54125;SDS011;40360;52.992;6.796;2022-10-16T10:00:41;10.55;;;2.50;;
54125;SDS011;40360;52.992;6.796;2022-10-16T10:03:13;5.70;;;1.95;;
54125;SDS011;40360;52.992;6.796;2022-10-16T10:08:53;9.15;;;2.15;;
54125;SDS011;40360;52.992;6.796;2022-10-16T10:11:40;8.57;;;2.40;;
54125;SDS011;40360;52.992;6.796;2022-10-16T10:14:24;11.50;;;2.92;;
54125;SDS011;40360;52.992;6.796;2022-10-16T10:19:44;10.75;;;2.33;;
54125;SDS011;40360;52.992;6.796;2022-10-16T10:22:16;9.57;;;2.00;;
54125;SDS011;40360;52.992;6.796;2022-10-16T10:24:45;9.63;;;2.47;;
54125;SDS011;40360;52.992;6.796;2022-10-16T10:33:18;8.35;;;2.55;;
54125;SDS011;40360;52.992;6.796;2022-10-16T10:58:20;10.50;;;2.78;;
54125;SDS011;40360;52.992;6.796;2022-10-16T11:00:55;9.63;;;3.22;;
54125;SDS011;40360;52.992;6.796;2022-10-16T11:06:26;9.70;;;2.30;;
54125;SDS011;40360;52.992;6.796;2022-10-16T11:14:13;11.75;;;2.88;;
54125;SDS011;40360;52.992;6.796;2022-10-16T11:16:54;10.65;;;2.03;;
54125;SDS011;40360;52.992;6.796;2022-10-16T11:19:39;10.70;;;2.92;;
54125;SDS011;40360;52.992;6.796;2022-10-16T11:22:22;9.02;;;1.95;;
54125;SDS011;40360;52.992;6.796;2022-10-16T11:25:11;9.90;;;2.75;;
54125;SDS011;40360;52.992;6.796;2022-10-16T11:27:49;11.82;;;3.13;;
54125;SDS011;40360;52.992;6.796;2022-10-16T11:30:26;8.18;;;2.00;;
54125;SDS011;40360;52.992;6.796;2022-10-16T11:38:12;8.15;;;2.10;;
54125;SDS011;40360;52.992;6.796;2022-10-16T11:40:54;8.20;;;2.63;;
54125;SDS011;40360;52.992;6.796;2022-10-16T11:43:35;10.60;;;2.17;;
54125;SDS011;40360;52.992;6.796;2022-10-16T11:46:08;12.18;;;2.88;;
54125;SDS011;40360;52.992;6.796;2022-10-16T11:48:46;8.65;;;2.05;;
54125;SDS011;40360;52.992;6.796;2022-10-16T11:51:31;15.30;;;2.90;;
54125;SDS011;40360;52.992;6.796;2022-10-16T11:56:46;16.08;;;2.38;;
54125;SDS011;40360;52.992;6.796;2022-10-16T12:04:49;10.98;;;2.33;;
54125;SDS011;40360;52.992;6.796;2022-10-16T12:07:27;13.00;;;3.40;;
54125;SDS011;40360;52.992;6.796;2022-10-16T12:10:18;7.68;;;2.35;;
54125;SDS011;40360;52.992;6.796;2022-10-16T12:12:50;9.27;;;2.25;;
54125;SDS011;40360;52.992;6.796;2022-10-16T12:15:23;10.60;;;3.17;;
54125;SDS011;40360;52.992;6.796;2022-10-16T12:17:50;11.95;;;2.35;;
54125;SDS011;40360;52.992;6.796;2022-10-16T12:25:24;10.90;;;2.33;;
54125;SDS011;40360;52.992;6.796;2022-10-16T12:28:05;9.43;;;2.50;;
54125;SDS011;40360;52.992;6.796;2022-10-16T12:30:32;8.40;;;2.47;;
54125;SDS011;40360;52.992;6.796;2022-10-16T12:33:03;7.80;;;2.05;;
54125;SDS011;40360;52.992;6.796;2022-10-16T12:35:33;10.88;;;2.30;;
54125;SDS011;40360;52.992;6.796;2022-10-16T12:40:40;6.18;;;1.80;;
54125;SDS011;40360;52.992;6.796;2022-10-16T12:43:12;8.13;;;2.85;;
54125;SDS011;40360;52.992;6.796;2022-10-16T12:45:59;13.75;;;2.25;;
54125;SDS011;40360;52.992;6.796;2022-10-16T12:48:28;6.57;;;1.98;;
54125;SDS011;40360;52.992;6.796;2022-10-16T12:50:54;9.93;;;2.97;;
54125;SDS011;40360;52.992;6.796;2022-10-16T12:53:21;9.60;;;2.40;;
54125;SDS011;40360;52.992;6.796;2022-10-16T12:56:00;7.38;;;2.10;;
54125;SDS011;40360;52.992;6.796;2022-10-16T12:58:40;7.65;;;1.90;;
54125;SDS011;40360;52.992;6.796;2022-10-16T13:01:34;10.32;;;2.50;;
54125;SDS011;40360;52.992;6.796;2022-10-16T13:12:47;9.95;;;2.20;;
54125;SDS011;40360;52.992;6.796;2022-10-16T13:15:39;7.57;;;2.20;;
54125;SDS011;40360;52.992;6.796;2022-10-16T13:18:43;8.13;;;2.55;;
54125;SDS011;40360;52.992;6.796;2022-10-16T13:29:00;12.13;;;2.50;;
54125;SDS011;40360;52.992;6.796;2022-10-16T13:31:27;8.95;;;2.00;;
54125;SDS011;40360;52.992;6.796;2022-10-16T13:33:55;7.82;;;1.92;;
54125;SDS011;40360;52.992;6.796;2022-10-16T13:36:27;4.15;;;1.52;;
54125;SDS011;40360;52.992;6.796;2022-10-16T13:38:59;8.50;;;1.70;;
54125;SDS011;40360;52.992;6.796;2022-10-16T13:41:31;16.95;;;2.80;;
54125;SDS011;40360;52.992;6.796;2022-10-16T13:43:57;9.90;;;2.13;;
54125;SDS011;40360;52.992;6.796;2022-10-16T13:46:23;7.53;;;2.03;;
54125;SDS011;40360;52.992;6.796;2022-10-16T13:48:56;10.93;;;2.42;;
54125;SDS011;40360;52.992;6.796;2022-10-16T13:51:24;8.70;;;1.90;;
54125;SDS011;40360;52.992;6.796;2022-10-16T13:53:50;8.23;;;2.30;;
54125;SDS011;40360;52.992;6.796;2022-10-16T13:56:17;10.48;;;2.55;;
54125;SDS011;40360;52.992;6.796;2022-10-16T13:58:44;12.50;;;2.70;;
54125;SDS011;40360;52.992;6.796;2022-10-16T14:03:47;8.68;;;2.10;;
54125;SDS011;40360;52.992;6.796;2022-10-16T14:06:20;10.23;;;2.40;;
54125;SDS011;40360;52.992;6.796;2022-10-16T14:08:54;8.50;;;2.60;;
54125;SDS011;40360;52.992;6.796;2022-10-16T14:11:24;14.43;;;3.78;;
54125;SDS011;40360;52.992;6.796;2022-10-16T14:13:51;12.00;;;2.15;;
54125;SDS011;40360;52.992;6.796;2022-10-16T14:16:21;7.40;;;2.30;;
54125;SDS011;40360;52.992;6.796;2022-10-16T14:18:54;8.40;;;2.65;;
54125;SDS011;40360;52.992;6.796;2022-10-16T14:21:26;12.27;;;3.40;;
54125;SDS011;40360;52.992;6.796;2022-10-16T14:23:53;14.93;;;3.10;;
54125;SDS011;40360;52.992;6.796;2022-10-16T14:26:20;14.25;;;2.75;;
54125;SDS011;40360;52.992;6.796;2022-10-16T14:28:49;8.43;;;1.92;;
54125;SDS011;40360;52.992;6.796;2022-10-16T14:31:30;9.40;;;2.63;;
54125;SDS011;40360;52.992;6.796;2022-10-16T14:33:58;9.82;;;2.67;;
54125;SDS011;40360;52.992;6.796;2022-10-16T14:36:26;11.10;;;2.40;;
54125;SDS011;40360;52.992;6.796;2022-10-16T14:41:27;10.43;;;3.05;;
54125;SDS011;40360;52.992;6.796;2022-10-16T14:44:00;8.15;;;2.35;;
54125;SDS011;40360;52.992;6.796;2022-10-16T14:46:30;9.30;;;2.90;;
54125;SDS011;40360;52.992;6.796;2022-10-16T14:51:39;13.30;;;2.45;;
54125;SDS011;40360;52.992;6.796;2022-10-16T14:54:08;7.88;;;2.22;;
54125;SDS011;40360;52.992;6.796;2022-10-16T14:56:41;12.45;;;3.20;;
54125;SDS011;40360;52.992;6.796;2022-10-16T15:04:56;9.82;;;3.15;;
54125;SDS011;40360;52.992;6.796;2022-10-16T15:07:24;12.93;;;2.63;;
54125;SDS011;40360;52.992;6.796;2022-10-16T15:09:50;13.45;;;2.72;;
54125;SDS011;40360;52.992;6.796;2022-10-16T15:12:17;13.73;;;2.30;;
54125;SDS011;40360;52.992;6.796;2022-10-16T15:14:43;8.30;;;2.22;;
54125;SDS011;40360;52.992;6.796;2022-10-16T15:17:09;14.07;;;2.83;;
54125;SDS011;40360;52.992;6.796;2022-10-16T15:19:36;7.88;;;2.17;;
54125;SDS011;40360;52.992;6.796;2022-10-16T15:22:01;10.30;;;2.33;;
54125;SDS011;40360;52.992;6.796;2022-10-16T15:24:27;14.95;;;2.80;;
54125;SDS011;40360;52.992;6.796;2022-10-16T15:26:53;10.63;;;3.25;;
54125;SDS011;40360;52.992;6.796;2022-10-16T15:29:18;15.77;;;3.00;;
54125;SDS011;40360;52.992;6.796;2022-10-16T15:31:44;10.02;;;2.80;;
54125;SDS011;40360;52.992;6.796;2022-10-16T15:34:12;12.52;;;3.08;;
54125;SDS011;40360;52.992;6.796;2022-10-16T15:36:38;11.35;;;3.15;;
54125;SDS011;40360;52.992;6.796;2022-10-16T15:39:05;9.80;;;2.80;;
54125;SDS011;40360;52.992;6.796;2022-10-16T15:41:42;16.75;;;2.92;;
54125;SDS011;40360;52.992;6.796;2022-10-16T15:44:08;11.90;;;3.47;;
54125;SDS011;40360;52.992;6.796;2022-10-16T15:46:33;9.38;;;2.97;;
54125;SDS011;40360;52.992;6.796;2022-10-16T15:48:59;8.30;;;2.15;;
54125;SDS011;40360;52.992;6.796;2022-10-16T15:51:26;11.60;;;2.70;;
54125;SDS011;40360;52.992;6.796;2022-10-16T15:53:55;9.10;;;2.25;;
54125;SDS011;40360;52.992;6.796;2022-10-16T15:56:21;6.88;;;2.42;;
54125;SDS011;40360;52.992;6.796;2022-10-16T15:58:48;14.93;;;2.60;;
54125;SDS011;40360;52.992;6.796;2022-10-16T16:01:13;11.43;;;2.80;;
54125;SDS011;40360;52.992;6.796;2022-10-16T16:03:39;16.55;;;3.83;;
54125;SDS011;40360;52.992;6.796;2022-10-16T16:06:06;13.25;;;2.83;;
54125;SDS011;40360;52.992;6.796;2022-10-16T16:08:34;12.45;;;2.83;;
54125;SDS011;40360;52.992;6.796;2022-10-16T16:11:04;7.22;;;2.90;;
54125;SDS011;40360;52.992;6.796;2022-10-16T16:13:34;13.88;;;3.40;;
54125;SDS011;40360;52.992;6.796;2022-10-16T16:16:04;9.88;;;3.15;;
54125;SDS011;40360;52.992;6.796;2022-10-16T16:18:41;10.55;;;2.97;;
54125;SDS011;40360;52.992;6.796;2022-10-16T16:21:09;12.85;;;3.35;;
54125;SDS011;40360;52.992;6.796;2022-10-16T16:23:35;8.43;;;3.00;;
54125;SDS011;40360;52.992;6.796;2022-10-16T16:28:29;13.45;;;3.00;;
54125;SDS011;40360;52.992;6.796;2022-10-16T16:30:56;15.10;;;3.38;;
54125;SDS011;40360;52.992;6.796;2022-10-16T16:33:21;7.85;;;2.55;;
54125;SDS011;40360;52.992;6.796;2022-10-16T16:35:47;8.20;;;3.00;;
54125;SDS011;40360;52.992;6.796;2022-10-16T16:38:12;11.88;;;3.10;;
54125;SDS011;40360;52.992;6.796;2022-10-16T16:40:38;14.85;;;4.10;;
54125;SDS011;40360;52.992;6.796;2022-10-16T16:43:04;16.38;;;3.63;;
54125;SDS011;40360;52.992;6.796;2022-10-16T16:45:29;9.23;;;2.83;;
54125;SDS011;40360;52.992;6.796;2022-10-16T16:47:55;14.85;;;3.55;;
54125;SDS011;40360;52.992;6.796;2022-10-16T16:50:21;9.18;;;3.50;;
54125;SDS011;40360;52.992;6.796;2022-10-16T16:52:46;14.25;;;3.53;;
54125;SDS011;40360;52.992;6.796;2022-10-16T16:55:12;13.07;;;3.40;;
54125;SDS011;40360;52.992;6.796;2022-10-16T16:57:37;9.75;;;3.38;;
54125;SDS011;40360;52.992;6.796;2022-10-16T17:00:03;8.50;;;2.95;;
54125;SDS011;40360;52.992;6.796;2022-10-16T17:02:29;13.48;;;3.17;;
54125;SDS011;40360;52.992;6.796;2022-10-16T17:04:55;11.18;;;3.50;;
54125;SDS011;40360;52.992;6.796;2022-10-16T17:07:22;13.50;;;5.22;;
54125;SDS011;40360;52.992;6.796;2022-10-16T17:09:50;14.00;;;4.07;;
54125;SDS011;40360;52.992;6.796;2022-10-16T17:12:15;8.93;;;3.47;;
54125;SDS011;40360;52.992;6.796;2022-10-16T17:14:41;11.82;;;3.83;;
54125;SDS011;40360;52.992;6.796;2022-10-16T17:17:06;11.57;;;3.88;;
54125;SDS011;40360;52.992;6.796;2022-10-16T17:19:32;14.57;;;4.28;;
54125;SDS011;40360;52.992;6.796;2022-10-16T17:21:58;10.80;;;3.80;;
54125;SDS011;40360;52.992;6.796;2022-10-16T17:24:24;13.75;;;4.18;;
54125;SDS011;40360;52.992;6.796;2022-10-16T17:26:50;12.48;;;3.28;;